Time;durP1;ratioP1;P1;durP2;ratioP2;P2;SDS_P1;SDS_P2;PMS_P1;PMS_P2;Temp;Humidity;BMP_temperature;BMP_pressure;BME280_temperature;BME280_humidity;BME280_pressure;Samples;Min_cycle;Max_cycle;Signal;HPM_P1;HPM_P2
2023/08/02 00:01:47;;;;;;;42.30;10.73;;;;;;;;;;5093939;28;20036;-69
2023/08/02 00:04:13;;;;;;;40.40;10.57;;;;;;;;;;5094074;28;20431;-70
2023/08/02 00:06:39;;;;;;;33.83;11.35;;;;;;;;;;5093967;28;20097;-69
2023/08/02 00:09:06;;;;;;;43.47;11.60;;;;;;;;;;5076152;28;20047;-70
2023/08/02 00:11:32;;;;;;;40.95;11.55;;;;;;;;;;5094009;28;20116;-70
2023/08/02 00:13:58;;;;;;;36.22;11.15;;;;;;;;;;5075781;28;20131;-69
2023/08/02 00:16:24;;;;;;;28.77;10.30;;;;;;;;;;5075579;28;20040;-69
2023/08/02 00:18:50;;;;;;;37.00;11.05;;;;;;;;;;5075778;28;20040;-69
2023/08/02 00:21:16;;;;;;;37.55;11.00;;;;;;;;;;5075524;28;20135;-70
2023/08/02 00:23:42;;;;;;;39.53;11.30;;;;;;;;;;5093648;28;20123;-69
2023/08/02 00:26:09;;;;;;;36.58;11.55;;;;;;;;;;5093803;28;20032;-70
2023/08/02 00:28:35;;;;;;;43.45;11.02;;;;;;;;;;5075948;28;20028;-69
2023/08/02 00:31:01;;;;;;;37.67;10.77;;;;;;;;;;5093495;28;20031;-70
2023/08/02 00:33:27;;;;;;;31.30;10.52;;;;;;;;;;5093596;28;20028;-70
2023/08/02 00:35:54;;;;;;;30.85;11.25;;;;;;;;;;5093491;28;20056;-71
2023/08/02 00:38:21;;;;;;;28.80;10.63;;;;;;;;;;5093703;28;20012;-69
2023/08/02 00:40:48;;;;;;;36.22;12.30;;;;;;;;;;5058116;28;20043;-69
2023/08/02 00:43:15;;;;;;;33.97;11.93;;;;;;;;;;5075770;28;20028;-69
2023/08/02 00:45:41;;;;;;;34.70;11.73;;;;;;;;;;5093380;28;20042;-69
2023/08/02 00:48:07;;;;;;;33.63;10.55;;;;;;;;;;5075272;28;20036;-69
2023/08/02 00:50:34;;;;;;;29.40;10.23;;;;;;;;;;5075007;28;20035;-69
2023/08/02 00:53:01;;;;;;;25.42;9.43;;;;;;;;;;5074973;28;20032;-70
2023/08/02 00:55:27;;;;;;;30.50;9.48;;;;;;;;;;5075297;28;20073;-70
2023/08/02 00:57:53;;;;;;;33.35;10.93;;;;;;;;;;5093213;28;20079;-70
2023/08/02 01:00:19;;;;;;;29.27;10.15;;;;;;;;;;5093067;28;20032;-71
2023/08/02 01:02:46;;;;;;;32.67;12.63;;;;;;;;;;5073936;28;20059;-70
2023/08/02 01:05:12;;;;;;;27.73;9.85;;;;;;;;;;5074540;28;20032;-70
2023/08/02 01:07:42;;;;;;;31.23;9.52;;;;;;;;;;5081458;28;20051;-70
2023/08/02 01:10:10;;;;;;;28.17;10.82;;;;;;;;;;5072602;28;20059;-70
2023/08/02 01:12:38;;;;;;;32.53;10.52;;;;;;;;;;5054718;28;20028;-69
2023/08/02 01:15:06;;;;;;;30.63;11.23;;;;;;;;;;5054401;28;20043;-69
2023/08/02 01:17:32;;;;;;;25.10;10.27;;;;;;;;;;5054431;28;20024;-69
2023/08/02 01:20:03;;;;;;;27.55;10.15;;;;;;;;;;5054913;28;20047;-69
2023/08/02 01:22:31;;;;;;;25.38;10.10;;;;;;;;;;5072164;28;20032;-69
2023/08/02 01:25:00;;;;;;;25.58;9.40;;;;;;;;;;5072165;28;20441;-68
2023/08/02 01:27:53;;;;;;;23.53;10.10;;;;;;;;;;5038321;28;20102;-69
2023/08/02 01:30:21;;;;;;;24.50;9.65;;;;;;;;;;5072401;28;20485;-69
2023/08/02 01:32:47;;;;;;;32.63;11.50;;;;;;;;;;5072446;28;20045;-69
2023/08/02 01:35:15;;;;;;;24.33;9.75;;;;;;;;;;5053947;28;20402;-69
2023/08/02 01:37:45;;;;;;;28.90;10.20;;;;;;;;;;5054198;28;20404;-69
2023/08/02 01:40:11;;;;;;;26.88;9.85;;;;;;;;;;5071984;28;20098;-69
2023/08/02 01:42:37;;;;;;;38.72;11.38;;;;;;;;;;5054471;28;20033;-70
2023/08/02 01:45:03;;;;;;;25.00;9.50;;;;;;;;;;5054021;28;20035;-75
2023/08/02 01:47:30;;;;;;;24.65;9.68;;;;;;;;;;5054014;28;20029;-69
2023/08/02 01:49:56;;;;;;;27.73;9.15;;;;;;;;;;5072094;28;20028;-69
2023/08/02 01:52:22;;;;;;;25.02;9.27;;;;;;;;;;5054041;28;20065;-69
2023/08/02 01:54:48;;;;;;;23.67;9.75;;;;;;;;;;5053620;28;20056;-69
2023/08/02 01:57:14;;;;;;;21.02;9.75;;;;;;;;;;5071737;28;20040;-69
2023/08/02 01:59:41;;;;;;;25.95;10.40;;;;;;;;;;5071481;28;20031;-69
2023/08/02 02:02:07;;;;;;;24.77;9.80;;;;;;;;;;5053441;28;20520;-69
2023/08/02 02:04:33;;;;;;;24.70;9.13;;;;;;;;;;5037319;28;20466;-69
2023/08/02 02:07:01;;;;;;;24.33;9.63;;;;;;;;;;5039154;28;20398;-69
2023/08/02 02:09:27;;;;;;;23.83;9.65;;;;;;;;;;5071422;28;20035;-69
2023/08/02 02:11:53;;;;;;;24.60;10.73;;;;;;;;;;5071430;28;20490;-69
2023/08/02 02:14:19;;;;;;;22.67;9.80;;;;;;;;;;5053736;28;20033;-69
2023/08/02 02:16:45;;;;;;;26.88;9.98;;;;;;;;;;5053572;28;20083;-69
2023/08/02 02:19:11;;;;;;;24.17;9.98;;;;;;;;;;5053306;28;20088;-69
2023/08/02 02:21:38;;;;;;;26.42;9.52;;;;;;;;;;5080619;28;20475;-70
2023/08/02 02:24:06;;;;;;;22.45;9.77;;;;;;;;;;5090682;28;20081;-69
2023/08/02 02:26:32;;;;;;;25.63;10.45;;;;;;;;;;5091509;28;20448;-70
2023/08/02 02:28:59;;;;;;;28.60;11.02;;;;;;;;;;5091288;28;20032;-69
2023/08/02 02:31:25;;;;;;;26.70;10.20;;;;;;;;;;5091239;28;20082;-70
2023/08/02 02:33:51;;;;;;;23.90;11.20;;;;;;;;;;5091203;28;20055;-69
2023/08/02 02:36:17;;;;;;;27.60;11.00;;;;;;;;;;5090944;28;20081;-69
2023/08/02 02:38:43;;;;;;;25.95;10.18;;;;;;;;;;5090860;28;20040;-70
2023/08/02 02:41:10;;;;;;;25.02;10.20;;;;;;;;;;5091326;28;20054;-69
2023/08/02 02:43:36;;;;;;;26.10;10.52;;;;;;;;;;5091118;28;20020;-70
2023/08/02 02:46:02;;;;;;;23.95;10.93;;;;;;;;;;5091082;28;20069;-70
2023/08/02 02:48:28;;;;;;;27.20;10.55;;;;;;;;;;5090608;28;20153;-70
2023/08/02 02:50:54;;;;;;;20.27;9.35;;;;;;;;;;5091321;28;20516;-70
2023/08/02 02:53:22;;;;;;;26.33;10.20;;;;;;;;;;5072743;28;20034;-71
2023/08/02 02:55:49;;;;;;;26.63;10.40;;;;;;;;;;5090935;28;20054;-70
2023/08/02 02:58:15;;;;;;;37.40;11.75;;;;;;;;;;5072486;28;20460;-70
2023/08/02 03:00:41;;;;;;;24.27;9.90;;;;;;;;;;5072749;28;20032;-70
2023/08/02 03:03:07;;;;;;;30.25;12.75;;;;;;;;;;5072641;28;20386;-70
2023/08/02 03:05:33;;;;;;;29.17;10.75;;;;;;;;;;5071979;28;20032;-70
2023/08/02 03:07:59;;;;;;;28.10;10.75;;;;;;;;;;5090433;28;20554;-69
2023/08/02 03:10:25;;;;;;;29.25;10.93;;;;;;;;;;5073068;28;20059;-69
2023/08/02 03:12:51;;;;;;;32.72;11.07;;;;;;;;;;5090653;28;20044;-69
2023/08/02 03:15:17;;;;;;;29.00;9.60;;;;;;;;;;5072723;28;20077;-68
2023/08/02 03:17:44;;;;;;;29.17;10.48;;;;;;;;;;5090268;28;20251;-69
2023/08/02 03:20:10;;;;;;;26.25;9.68;;;;;;;;;;5090610;28;20408;-69
2023/08/02 03:22:36;;;;;;;30.90;10.43;;;;;;;;;;5072664;28;20032;-69
2023/08/02 03:25:02;;;;;;;30.10;11.55;;;;;;;;;;5055908;28;20047;-68
2023/08/02 03:27:28;;;;;;;22.40;10.40;;;;;;;;;;5072448;28;20032;-69
2023/08/02 03:29:56;;;;;;;27.77;9.65;;;;;;;;;;5090432;28;20128;-70
2023/08/02 03:32:22;;;;;;;29.83;11.45;;;;;;;;;;5072970;28;20090;-68
2023/08/02 03:34:48;;;;;;;25.20;10.07;;;;;;;;;;5090151;28;20048;-71
2023/08/02 03:37:14;;;;;;;29.15;10.65;;;;;;;;;;5090393;28;20044;-69
2023/08/02 03:39:41;;;;;;;35.67;10.55;;;;;;;;;;5090331;28;20040;-69
2023/08/02 03:42:07;;;;;;;26.80;10.65;;;;;;;;;;5090552;28;20044;-69
2023/08/02 03:44:33;;;;;;;28.23;10.82;;;;;;;;;;5071955;28;20024;-69
2023/08/02 03:46:59;;;;;;;27.40;10.43;;;;;;;;;;5090686;28;20157;-69
2023/08/02 03:49:25;;;;;;;31.27;11.55;;;;;;;;;;5072289;28;20040;-70
2023/08/02 03:51:51;;;;;;;25.63;11.63;;;;;;;;;;5072906;28;20047;-76
2023/08/02 03:54:18;;;;;;;32.33;11.57;;;;;;;;;;5072404;28;20463;-70
2023/08/02 03:56:44;;;;;;;27.23;10.30;;;;;;;;;;5090855;28;20036;-67
2023/08/02 03:59:10;;;;;;;29.42;10.20;;;;;;;;;;5090476;28;20435;-68
2023/08/02 04:01:36;;;;;;;26.48;10.77;;;;;;;;;;5090222;28;20036;-68
2023/08/02 04:04:02;;;;;;;28.55;10.98;;;;;;;;;;5089963;28;20401;-69
2023/08/02 04:06:28;;;;;;;29.17;10.25;;;;;;;;;;5072162;28;20035;-69
2023/08/02 04:08:54;;;;;;;27.73;10.60;;;;;;;;;;5071650;28;20444;-69
2023/08/02 04:11:21;;;;;;;31.73;10.13;;;;;;;;;;5090033;28;20036;-69
2023/08/02 04:13:47;;;;;;;24.13;10.13;;;;;;;;;;5071941;28;20047;-70
2023/08/02 04:16:13;;;;;;;29.38;10.25;;;;;;;;;;5092828;28;20538;-70
2023/08/02 04:18:39;;;;;;;24.05;9.05;;;;;;;;;;5093647;28;20079;-69
2023/08/02 04:21:05;;;;;;;28.77;9.38;;;;;;;;;;5093436;28;20109;-69
2023/08/02 04:23:31;;;;;;;29.50;9.20;;;;;;;;;;5093022;28;20492;-69
2023/08/02 04:25:58;;;;;;;27.27;9.68;;;;;;;;;;5093813;28;20427;-70
2023/08/02 04:28:24;;;;;;;23.83;9.48;;;;;;;;;;5093336;28;20028;-69
2023/08/02 04:30:50;;;;;;;29.60;9.93;;;;;;;;;;5075399;28;20028;-69
2023/08/02 04:33:17;;;;;;;25.52;9.52;;;;;;;;;;5075165;28;20036;-71
2023/08/02 04:35:43;;;;;;;19.08;9.05;;;;;;;;;;5074940;28;20067;-70
2023/08/02 04:38:09;;;;;;;26.70;9.20;;;;;;;;;;5093147;28;20028;-68
2023/08/02 04:40:38;;;;;;;26.88;9.13;;;;;;;;;;5093277;28;20047;-69
2023/08/02 04:43:04;;;;;;;25.05;9.55;;;;;;;;;;5093167;28;20028;-70
2023/08/02 04:45:31;;;;;;;25.73;9.57;;;;;;;;;;5075103;28;20111;-69
2023/08/02 04:47:57;;;;;;;17.63;8.55;;;;;;;;;;5093113;28;20454;-70
2023/08/02 04:50:23;;;;;;;23.88;8.68;;;;;;;;;;5093208;28;20126;-77
2023/08/02 04:52:49;;;;;;;15.77;8.05;;;;;;;;;;5075194;28;20067;-70
2023/08/02 04:55:15;;;;;;;21.00;8.13;;;;;;;;;;5093635;28;20489;-69
2023/08/02 04:57:41;;;;;;;21.15;8.05;;;;;;;;;;5075282;28;20039;-69
2023/08/02 05:00:08;;;;;;;24.80;8.57;;;;;;;;;;5074863;28;20040;-70
2023/08/02 05:02:36;;;;;;;21.35;9.02;;;;;;;;;;5075199;28;20032;-70
2023/08/02 05:05:02;;;;;;;18.63;8.32;;;;;;;;;;5092924;28;20073;-69
2023/08/02 05:07:32;;;;;;;23.88;8.35;;;;;;;;;;5092683;28;20055;-68
2023/08/02 05:09:59;;;;;;;24.27;8.25;;;;;;;;;;5092498;28;20031;-69
2023/08/02 05:12:25;;;;;;;24.30;8.80;;;;;;;;;;5092682;28;20103;-69
2023/08/02 05:14:51;;;;;;;21.38;8.10;;;;;;;;;;5092401;28;20035;-69
2023/08/02 05:17:17;;;;;;;24.55;8.38;;;;;;;;;;5092635;28;20108;-70
2023/08/02 05:19:43;;;;;;;15.80;7.85;;;;;;;;;;5092305;28;20320;-69
2023/08/02 05:22:10;;;;;;;20.48;7.90;;;;;;;;;;5058041;28;20040;-70
2023/08/02 05:24:36;;;;;;;15.82;8.13;;;;;;;;;;5092571;28;20016;-69
2023/08/02 05:27:02;;;;;;;21.00;8.32;;;;;;;;;;5092121;28;20040;-69
2023/08/02 05:29:28;;;;;;;20.52;8.00;;;;;;;;;;5092556;28;20039;-69
2023/08/02 05:31:54;;;;;;;20.60;9.57;;;;;;;;;;5074914;28;20069;-69
2023/08/02 05:34:20;;;;;;;15.43;8.45;;;;;;;;;;5070925;28;20143;-69
2023/08/02 05:36:46;;;;;;;23.10;9.30;;;;;;;;;;5070890;28;20040;-69
2023/08/02 05:39:13;;;;;;;19.52;8.82;;;;;;;;;;5070802;28;20040;-69
2023/08/02 05:41:39;;;;;;;18.27;8.93;;;;;;;;;;5071638;28;20044;-69
2023/08/02 05:44:05;;;;;;;20.67;9.68;;;;;;;;;;5071973;28;20041;-69
2023/08/02 05:46:31;;;;;;;19.70;8.90;;;;;;;;;;5072353;28;20043;-69
2023/08/02 05:48:57;;;;;;;20.40;9.13;;;;;;;;;;5070959;28;20033;-69
2023/08/02 05:51:23;;;;;;;16.23;9.48;;;;;;;;;;5072130;28;20039;-69
2023/08/02 05:53:49;;;;;;;23.20;9.43;;;;;;;;;;5072647;28;20093;-69
2023/08/02 05:56:15;;;;;;;16.50;9.65;;;;;;;;;;5070829;28;20037;-69
2023/08/02 05:58:41;;;;;;;19.25;9.02;;;;;;;;;;5070443;28;20044;-69
2023/08/02 06:01:08;;;;;;;16.00;9.30;;;;;;;;;;5071683;28;20029;-69
2023/08/02 06:03:34;;;;;;;20.25;9.50;;;;;;;;;;5071762;28;20047;-70
2023/08/02 06:06:00;;;;;;;21.60;10.98;;;;;;;;;;5071493;28;20041;-70
2023/08/02 06:08:26;;;;;;;20.05;10.38;;;;;;;;;;5071658;28;20098;-70
2023/08/02 06:10:52;;;;;;;21.25;10.40;;;;;;;;;;5071505;28;20032;-70
2023/08/02 06:13:19;;;;;;;28.88;10.35;;;;;;;;;;5071410;28;20578;-69
2023/08/02 06:15:45;;;;;;;26.58;10.82;;;;;;;;;;5071802;28;20042;-69
2023/08/02 06:18:11;;;;;;;26.48;11.25;;;;;;;;;;5071641;28;20033;-70
2023/08/02 06:20:37;;;;;;;25.27;10.75;;;;;;;;;;5069983;28;20371;-69
2023/08/02 06:23:03;;;;;;;21.92;10.55;;;;;;;;;;5070569;28;20028;-69
2023/08/02 06:25:29;;;;;;;22.27;10.45;;;;;;;;;;5070273;28;20025;-69
2023/08/02 06:27:55;;;;;;;23.42;10.98;;;;;;;;;;5070490;28;20029;-70
2023/08/02 06:30:22;;;;;;;17.90;10.05;;;;;;;;;;5070954;28;20029;-70
2023/08/02 06:32:48;;;;;;;24.45;10.75;;;;;;;;;;5069375;28;20080;-70
2023/08/02 06:35:14;;;;;;;23.92;11.18;;;;;;;;;;5081003;28;20044;-70
2023/08/02 06:37:40;;;;;;;21.10;10.98;;;;;;;;;;5072787;28;20047;-70
2023/08/02 06:40:07;;;;;;;22.13;10.23;;;;;;;;;;5089508;28;20035;-70
2023/08/02 06:42:33;;;;;;;20.27;10.35;;;;;;;;;;5090221;28;20078;-69
2023/08/02 06:44:59;;;;;;;25.52;9.75;;;;;;;;;;5072635;28;20032;-70
2023/08/02 06:47:25;;;;;;;16.83;10.05;;;;;;;;;;5064792;28;20028;-70
2023/08/02 06:49:51;;;;;;;15.90;9.85;;;;;;;;;;5085902;28;20028;-70
2023/08/02 06:52:18;;;;;;;17.20;9.98;;;;;;;;;;5068932;28;20040;-70
2023/08/02 06:54:44;;;;;;;19.48;10.95;;;;;;;;;;5084162;28;20047;-70
2023/08/02 06:57:10;;;;;;;17.52;9.85;;;;;;;;;;5087988;28;20480;-70
2023/08/02 06:59:36;;;;;;;15.55;9.50;;;;;;;;;;5076862;28;20043;-70
2023/08/02 07:02:02;;;;;;;15.00;9.38;;;;;;;;;;5071574;28;20035;-70
2023/08/02 07:04:28;;;;;;;20.83;10.35;;;;;;;;;;5091277;28;20039;-71
2023/08/02 07:06:54;;;;;;;16.52;9.88;;;;;;;;;;5069725;28;20043;-71
2023/08/02 07:09:20;;;;;;;13.80;8.88;;;;;;;;;;5072076;28;20124;-69
2023/08/02 07:11:47;;;;;;;13.73;9.05;;;;;;;;;;5089996;28;20031;-70
2023/08/02 07:14:13;;;;;;;14.02;9.25;;;;;;;;;;5090348;28;20055;-70
2023/08/02 07:16:39;;;;;;;13.77;8.63;;;;;;;;;;5089942;28;20109;-71
2023/08/02 07:19:05;;;;;;;15.80;8.05;;;;;;;;;;5090302;28;20085;-70
2023/08/02 07:21:31;;;;;;;14.82;8.30;;;;;;;;;;5089840;28;20071;-70
2023/08/02 07:23:57;;;;;;;15.48;7.22;;;;;;;;;;5089876;28;20030;-70
2023/08/02 07:26:23;;;;;;;11.68;7.18;;;;;;;;;;5090417;28;20035;-70
2023/08/02 07:28:49;;;;;;;11.52;6.68;;;;;;;;;;5072398;28;20028;-70
2023/08/02 07:31:16;;;;;;;11.10;7.10;;;;;;;;;;5089653;28;20051;-70
2023/08/02 07:33:43;;;;;;;9.88;6.25;;;;;;;;;;5089863;28;20026;-70
2023/08/02 07:36:13;;;;;;;9.52;6.35;;;;;;;;;;5089699;28;20055;-70
2023/08/02 07:38:39;;;;;;;12.40;6.72;;;;;;;;;;5089686;28;20054;-70
2023/08/02 07:41:06;;;;;;;9.55;5.60;;;;;;;;;;5089391;28;20205;-70
2023/08/02 07:43:32;;;;;;;12.27;4.57;;;;;;;;;;5089832;28;20036;-69
2023/08/02 07:45:58;;;;;;;7.45;4.78;;;;;;;;;;5089729;28;20047;-70
2023/08/02 07:48:24;;;;;;;7.43;4.80;;;;;;;;;;5089933;28;20020;-70
2023/08/02 07:50:50;;;;;;;5.80;4.38;;;;;;;;;;5091896;28;20111;-70
2023/08/02 07:53:16;;;;;;;6.53;4.10;;;;;;;;;;5093405;28;20042;-70
2023/08/02 07:55:42;;;;;;;6.45;3.67;;;;;;;;;;5058508;28;20039;-70
2023/08/02 07:58:09;;;;;;;5.10;3.50;;;;;;;;;;5076040;28;20050;-70
2023/08/02 08:00:35;;;;;;;5.07;3.40;;;;;;;;;;5075588;28;20064;-70
2023/08/02 08:03:03;;;;;;;5.85;3.63;;;;;;;;;;5075863;28;20419;-70
2023/08/02 08:05:32;;;;;;;4.85;3.40;;;;;;;;;;5093381;28;20163;-71
2023/08/02 08:07:58;;;;;;;7.55;3.53;;;;;;;;;;5093114;28;20044;-70
2023/08/02 08:10:24;;;;;;;4.75;3.22;;;;;;;;;;5093119;28;20056;-70
2023/08/02 08:12:50;;;;;;;6.30;2.90;;;;;;;;;;5075125;28;20054;-70
2023/08/02 08:15:16;;;;;;;2.88;2.30;;;;;;;;;;5093501;28;20024;-70
2023/08/02 08:17:43;;;;;;;3.70;2.58;;;;;;;;;;5093313;28;20183;-70
2023/08/02 08:20:09;;;;;;;2.90;2.10;;;;;;;;;;5093154;28;20430;-70
2023/08/02 08:22:35;;;;;;;3.40;1.92;;;;;;;;;;5092861;28;20028;-70
2023/08/02 08:25:01;;;;;;;2.97;2.00;;;;;;;;;;5093300;28;20059;-70
2023/08/02 08:27:27;;;;;;;2.80;2.00;;;;;;;;;;5064047;28;20028;-70
2023/08/02 08:29:53;;;;;;;3.28;2.33;;;;;;;;;;5073812;28;20021;-70
2023/08/02 08:32:22;;;;;;;3.65;2.50;;;;;;;;;;5055506;28;20464;-70
2023/08/02 08:34:48;;;;;;;3.92;2.78;;;;;;;;;;5051802;28;20127;-70
2023/08/02 08:37:14;;;;;;;3.25;2.30;;;;;;;;;;5052030;28;20045;-70
2023/08/02 08:39:40;;;;;;;3.78;2.38;;;;;;;;;;5053621;28;20033;-70
2023/08/02 08:42:10;;;;;;;4.07;2.17;;;;;;;;;;5062968;28;20025;-70
2023/08/02 08:44:37;;;;;;;3.63;1.67;;;;;;;;;;5073448;28;20036;-71
2023/08/02 08:47:04;;;;;;;2.95;1.90;;;;;;;;;;5071863;28;20414;-70
2023/08/02 08:49:30;;;;;;;2.80;2.10;;;;;;;;;;5073024;28;20029;-70
2023/08/02 08:51:58;;;;;;;2.83;1.85;;;;;;;;;;5073011;28;20032;-70
2023/08/02 08:54:28;;;;;;;2.60;1.85;;;;;;;;;;5073254;28;20098;-70
2023/08/02 08:56:55;;;;;;;2.67;1.95;;;;;;;;;;5073475;28;20024;-70
2023/08/02 08:59:21;;;;;;;2.20;1.67;;;;;;;;;;5072168;28;20036;-69
2023/08/02 09:01:47;;;;;;;91.93;5.85;;;;;;;;;;5072017;28;20044;-71
2023/08/02 09:04:14;;;;;;;2.22;1.48;;;;;;;;;;5073039;28;20435;-69
2023/08/02 09:06:40;;;;;;;2.55;1.40;;;;;;;;;;5072809;28;20052;-70
2023/08/02 09:09:06;;;;;;;16.10;2.10;;;;;;;;;;5072848;28;20060;-69
2023/08/02 09:11:32;;;;;;;1.95;1.40;;;;;;;;;;5072643;28;20032;-69
2023/08/02 09:14:11;;;;;;;2.90;1.60;;;;;;;;;;5072419;28;20036;-69
2023/08/02 09:16:39;;;;;;;2.03;1.83;;;;;;;;;;5071035;28;20131;-69
2023/08/02 09:19:21;;;;;;;5.13;1.70;;;;;;;;;;5072528;28;20092;-69
2023/08/02 09:21:47;;;;;;;2.03;1.80;;;;;;;;;;5072414;28;20029;-68
2023/08/02 09:24:13;;;;;;;2.55;1.92;;;;;;;;;;5072581;28;20121;-69
2023/08/02 09:26:39;;;;;;;3.35;2.08;;;;;;;;;;5072387;28;20096;-69
2023/08/02 09:29:06;;;;;;;2.58;2.13;;;;;;;;;;5072029;28;20035;-68
2023/08/02 09:31:36;;;;;;;3.47;2.30;;;;;;;;;;5072132;28;20020;-68
2023/08/02 09:34:03;;;;;;;4.63;3.42;;;;;;;;;;5070647;28;20067;-68
2023/08/02 09:36:33;;;;;;;4.50;3.15;;;;;;;;;;5090817;28;20047;-69
2023/08/02 09:39:03;;;;;;;4.00;2.78;;;;;;;;;;5092464;28;20097;-68
2023/08/02 09:41:30;;;;;;;6.22;3.45;;;;;;;;;;5091944;28;20024;-69
2023/08/02 09:43:56;;;;;;;3.40;2.83;;;;;;;;;;5092264;28;20177;-69
2023/08/02 09:46:24;;;;;;;4.10;3.00;;;;;;;;;;5092572;28;20035;-69
2023/08/02 09:48:50;;;;;;;4.18;2.90;;;;;;;;;;5092262;28;20028;-69
2023/08/02 09:51:16;;;;;;;4.70;2.50;;;;;;;;;;5092192;28;20039;-68
2023/08/02 09:53:53;;;;;;;3.10;2.20;;;;;;;;;;5073649;28;20080;-69
2023/08/02 09:56:21;;;;;;;3.83;2.22;;;;;;;;;;5091981;28;20103;-69
2023/08/02 09:58:48;;;;;;;2.75;2.00;;;;;;;;;;5079704;28;20436;-69
2023/08/02 10:01:14;;;;;;;3.47;2.50;;;;;;;;;;5071667;28;20094;-68
2023/08/02 10:03:40;;;;;;;5.93;2.30;;;;;;;;;;5040208;28;20043;-69
2023/08/02 10:06:07;;;;;;;3.65;2.20;;;;;;;;;;5072772;28;20028;-70
2023/08/02 10:08:34;;;;;;;3.08;2.35;;;;;;;;;;5082863;28;20031;-69
2023/08/02 10:11:01;;;;;;;3.28;2.00;;;;;;;;;;5085109;28;20373;-69
2023/08/02 10:13:30;;;;;;;5.22;2.00;;;;;;;;;;5064717;28;20038;-72
2023/08/02 10:15:58;;;;;;;2.60;2.07;;;;;;;;;;5083280;28;20032;-69
2023/08/02 10:18:25;;;;;;;6.50;2.22;;;;;;;;;;5074315;28;20116;-69
2023/08/02 10:20:51;;;;;;;3.78;2.03;;;;;;;;;;5069939;28;20035;-69
2023/08/02 10:23:17;;;;;;;4.53;2.40;;;;;;;;;;5071450;28;20180;-68
2023/08/02 10:25:43;;;;;;;4.00;2.17;;;;;;;;;;5069426;28;20041;-69
2023/08/02 10:28:10;;;;;;;3.67;2.20;;;;;;;;;;5068951;28;20028;-69
2023/08/02 10:30:36;;;;;;;3.33;2.20;;;;;;;;;;5072232;28;20045;-69
2023/08/02 10:33:18;;;;;;;4.57;2.00;;;;;;;;;;5077713;28;20032;-68
2023/08/02 10:35:53;;;;;;;3.67;2.50;;;;;;;;;;5068746;28;20135;-69
2023/08/02 10:38:26;;;;;;;4.03;2.20;;;;;;;;;;5087392;28;20056;-73
2023/08/02 10:41:02;;;;;;;3.53;1.58;;;;;;;;;;5078278;28;20120;-69
2023/08/02 10:43:28;;;;;;;3.60;2.00;;;;;;;;;;5060896;28;20553;-69
2023/08/02 10:46:27;;;;;;;2.90;1.40;;;;;;;;;;5076336;28;20029;-69
2023/08/02 10:49:16;;;;;;;5.32;2.00;;;;;;;;;;5055386;28;20036;-70
2023/08/02 10:51:44;;;;;;;6.35;1.50;;;;;;;;;;5087032;28;20024;-69
2023/08/02 10:54:15;;;;;;;5.90;1.40;;;;;;;;;;5051122;28;20029;-69
2023/08/02 10:56:58;;;;;;;5.57;1.45;;;;;;;;;;5069256;28;20051;-69
2023/08/02 10:59:24;;;;;;;5.38;1.33;;;;;;;;;;5072027;28;20169;-68
2023/08/02 11:01:57;;;;;;;6.82;1.42;;;;;;;;;;5088324;28;20284;-68
2023/08/02 11:04:24;;;;;;;7.60;1.40;;;;;;;;;;5089890;28;20035;-68
2023/08/02 11:06:50;;;;;;;6.07;1.75;;;;;;;;;;5082472;28;20021;-68
2023/08/02 11:09:16;;;;;;;7.85;1.75;;;;;;;;;;5078332;28;20108;-68
2023/08/02 11:11:42;;;;;;;6.72;1.77;;;;;;;;;;5075665;28;20037;-68
2023/08/02 11:14:09;;;;;;;9.50;2.17;;;;;;;;;;5082760;28;20060;-69
2023/08/02 11:16:42;;;;;;;8.02;1.98;;;;;;;;;;5080775;28;20028;-67
2023/08/02 11:19:11;;;;;;;14.52;2.63;;;;;;;;;;5075688;28;20027;-67
2023/08/02 11:21:38;;;;;;;10.57;2.17;;;;;;;;;;5057712;28;20028;-69
2023/08/02 11:24:04;;;;;;;9.85;2.60;;;;;;;;;;5077385;28;20165;-74
2023/08/02 11:26:31;;;;;;;9.20;2.47;;;;;;;;;;5055036;28;20025;-69
2023/08/02 11:28:57;;;;;;;12.05;2.83;;;;;;;;;;5056557;28;20455;-68
2023/08/02 11:31:28;;;;;;;9.88;2.65;;;;;;;;;;5082228;28;20052;-68
2023/08/02 11:33:54;;;;;;;8.55;2.10;;;;;;;;;;5071973;28;20050;-69
2023/08/02 11:36:21;;;;;;;6.38;2.08;;;;;;;;;;5048527;28;20040;-69
2023/08/02 11:38:47;;;;;;;9.52;2.40;;;;;;;;;;5062230;28;20033;-68
2023/08/02 11:41:17;;;;;;;9.02;1.67;;;;;;;;;;5069327;28;20045;-69
2023/08/02 11:43:44;;;;;;;8.88;1.67;;;;;;;;;;5069921;28;20080;-68
2023/08/02 11:46:14;;;;;;;8.27;1.35;;;;;;;;;;5070102;28;20029;-68
2023/08/02 11:48:41;;;;;;;4.90;1.42;;;;;;;;;;5068819;28;20024;-68
2023/08/02 11:51:08;;;;;;;10.13;1.60;;;;;;;;;;5070501;28;20021;-69
2023/08/02 11:53:34;;;;;;;6.88;1.58;;;;;;;;;;5068967;28;20577;-69
2023/08/02 11:56:01;;;;;;;6.20;1.42;;;;;;;;;;5070299;28;20024;-68
2023/08/02 11:58:27;;;;;;;4.57;1.35;;;;;;;;;;5070054;28;20066;-69
2023/08/02 12:00:53;;;;;;;8.27;1.63;;;;;;;;;;5070299;28;20084;-69
2023/08/02 12:03:20;;;;;;;7.18;1.10;;;;;;;;;;5068268;28;20051;-70
2023/08/02 12:05:46;;;;;;;4.25;1.20;;;;;;;;;;5069766;28;20037;-69
2023/08/02 12:08:14;;;;;;;5.53;1.10;;;;;;;;;;5069635;28;20016;-68
2023/08/02 12:10:41;;;;;;;7.07;1.17;;;;;;;;;;5068657;28;20017;-69
2023/08/02 12:13:12;;;;;;;5.32;1.15;;;;;;;;;;5069480;28;20098;-70
2023/08/02 12:15:39;;;;;;;7.60;1.40;;;;;;;;;;5069500;28;20032;-69
2023/08/02 12:18:05;;;;;;;9.10;1.30;;;;;;;;;;5069974;28;20071;-69
2023/08/02 12:20:32;;;;;;;4.47;1.20;;;;;;;;;;5070014;28;20039;-69
2023/08/02 12:22:58;;;;;;;4.55;1.33;;;;;;;;;;5069678;28;20029;-69
2023/08/02 12:25:24;;;;;;;6.57;1.33;;;;;;;;;;5068083;28;20024;-69
2023/08/02 12:28:03;;;;;;;4.75;1.30;;;;;;;;;;5069860;28;20051;-70
2023/08/02 12:30:29;;;;;;;8.90;1.40;;;;;;;;;;5069465;28;20035;-69
2023/08/02 12:32:56;;;;;;;8.80;1.52;;;;;;;;;;5068129;28;20036;-69
2023/08/02 12:35:22;;;;;;;10.18;1.50;;;;;;;;;;5072804;28;20044;-69
2023/08/02 12:37:48;;;;;;;8.32;1.42;;;;;;;;;;5091234;28;20047;-69
2023/08/02 12:40:14;;;;;;;7.15;1.58;;;;;;;;;;5093379;28;20040;-69
2023/08/02 12:42:40;;;;;;;8.00;1.30;;;;;;;;;;5075237;28;20055;-74
2023/08/02 12:45:07;;;;;;;5.95;1.42;;;;;;;;;;5075606;28;20044;-70
2023/08/02 12:47:33;;;;;;;7.68;1.83;;;;;;;;;;5093712;28;20442;-69
2023/08/02 12:49:59;;;;;;;8.45;1.88;;;;;;;;;;5093279;28;20020;-70
2023/08/02 12:52:25;;;;;;;8.27;1.60;;;;;;;;;;5075574;28;20066;-69
2023/08/02 12:54:51;;;;;;;6.70;1.52;;;;;;;;;;5093297;28;20119;-70
2023/08/02 12:57:17;;;;;;;7.28;1.77;;;;;;;;;;5093345;28;20042;-70
2023/08/02 12:59:44;;;;;;;7.80;1.40;;;;;;;;;;5075117;28;20283;-70
2023/08/02 13:02:10;;;;;;;8.18;2.63;;;;;;;;;;5093224;28;20599;-69
2023/08/02 13:04:36;;;;;;;11.00;1.67;;;;;;;;;;5074822;28;20783;-69
2023/08/02 13:07:03;;;;;;;4.90;1.30;;;;;;;;;;5092859;28;20093;-69
2023/08/02 13:09:29;;;;;;;5.60;1.45;;;;;;;;;;5093109;28;20460;-69
2023/08/02 13:11:55;;;;;;;7.32;1.20;;;;;;;;;;5092929;28;20477;-69
2023/08/02 13:14:21;;;;;;;4.47;1.10;;;;;;;;;;5074709;28;20029;-68
2023/08/02 13:16:47;;;;;;;6.10;1.45;;;;;;;;;;5075127;28;20029;-69
2023/08/02 13:19:14;;;;;;;7.35;1.30;;;;;;;;;;5092833;28;20505;-69
2023/08/02 13:21:40;;;;;;;11.27;2.10;;;;;;;;;;5074588;28;20031;-69
2023/08/02 13:24:06;;;;;;;6.03;1.05;;;;;;;;;;5074562;28;20044;-69
2023/08/02 13:26:32;;;;;;;7.35;1.60;;;;;;;;;;5092651;28;20028;-69
2023/08/02 13:28:58;;;;;;;10.10;1.73;;;;;;;;;;5092474;28;20413;-69
2023/08/02 13:31:24;;;;;;;14.80;1.92;;;;;;;;;;5092762;28;20028;-70
2023/08/02 13:33:51;;;;;;;6.93;1.75;;;;;;;;;;5092387;28;20154;-70
2023/08/02 13:36:17;;;;;;;4.70;1.27;;;;;;;;;;5092328;28;20040;-69
2023/08/02 13:38:43;;;;;;;8.20;1.10;;;;;;;;;;5092794;28;20032;-70
2023/08/02 13:41:09;;;;;;;11.25;2.53;;;;;;;;;;5092425;28;20036;-69
2023/08/02 13:43:35;;;;;;;8.18;1.73;;;;;;;;;;5057073;28;20040;-69
2023/08/02 13:46:01;;;;;;;7.05;1.88;;;;;;;;;;5091726;28;20043;-69
2023/08/02 13:48:27;;;;;;;8.70;1.85;;;;;;;;;;5091405;28;20111;-69
2023/08/02 13:50:54;;;;;;;13.15;1.98;;;;;;;;;;5074167;28;20040;-69
2023/08/02 13:53:20;;;;;;;12.15;2.00;;;;;;;;;;5074069;28;20032;-70
2023/08/02 13:55:46;;;;;;;12.60;2.35;;;;;;;;;;5073655;28;20032;-69
2023/08/02 13:58:12;;;;;;;17.02;2.30;;;;;;;;;;5092358;28;20046;-68
2023/08/02 14:00:38;;;;;;;14.70;2.25;;;;;;;;;;5091879;28;20042;-69
2023/08/02 14:03:05;;;;;;;12.80;2.05;;;;;;;;;;5091741;28;20046;-68
2023/08/02 14:05:31;;;;;;;15.20;1.88;;;;;;;;;;5073827;28;20032;-69
2023/08/02 14:07:57;;;;;;;13.40;1.95;;;;;;;;;;5073743;28;20478;-68
2023/08/02 14:10:23;;;;;;;11.10;1.48;;;;;;;;;;5091689;28;20097;-70
2023/08/02 14:12:49;;;;;;;13.50;1.58;;;;;;;;;;5074090;28;20024;-69
2023/08/02 14:15:15;;;;;;;6.65;1.40;;;;;;;;;;5091396;28;20115;-69
2023/08/02 14:17:41;;;;;;;13.23;2.00;;;;;;;;;;5091915;28;20473;-68
2023/08/02 14:20:08;;;;;;;14.30;1.40;;;;;;;;;;5073522;28;20032;-69
2023/08/02 14:22:34;;;;;;;13.35;1.45;;;;;;;;;;5091116;28;20036;-75
2023/08/02 14:25:00;;;;;;;16.48;1.95;;;;;;;;;;5090944;28;20134;-70
2023/08/02 14:27:26;;;;;;;7.00;1.48;;;;;;;;;;5092008;28;20107;-69
2023/08/02 14:29:53;;;;;;;10.48;1.90;;;;;;;;;;5091677;28;20085;-69